sensor_id;sensor_type;location;lat;lon;timestamp;pressure;altitude;pressure_sealevel;temperature;humidity
70900;BME280;67902;52.154;5.430;2023-04-26T00:01:04;102045.34;;;4.95;82.69
70900;BME280;67902;52.154;5.430;2023-04-26T00:03:30;102049.88;;;4.94;82.71
70900;BME280;67902;52.154;5.430;2023-04-26T00:05:59;102046.88;;;4.89;82.82
70900;BME280;67902;52.154;5.430;2023-04-26T00:08:31;102052.16;;;4.83;82.20
70900;BME280;67902;52.154;5.430;2023-04-26T00:10:58;102046.66;;;4.76;81.34
70900;BME280;67902;52.154;5.430;2023-04-26T00:13:24;102054.56;;;4.69;81.80
70900;BME280;67902;52.154;5.430;2023-04-26T00:15:51;102051.75;;;4.63;81.72
70900;BME280;67902;52.154;5.430;2023-04-26T00:18:17;102054.94;;;4.58;82.69
70900;BME280;67902;52.154;5.430;2023-04-26T00:20:44;102046.97;;;4.42;81.98
70900;BME280;67902;52.154;5.430;2023-04-26T00:23:10;102052.38;;;4.34;81.97
70900;BME280;67902;52.154;5.430;2023-04-26T00:25:37;102055.56;;;4.30;82.75
70900;BME280;67902;52.154;5.430;2023-04-26T00:28:03;102049.88;;;4.25;83.08
70900;BME280;67902;52.154;5.430;2023-04-26T00:30:30;102044.72;;;4.23;83.21
70900;BME280;67902;52.154;5.430;2023-04-26T00:32:57;102044.22;;;4.20;83.32
70900;BME280;67902;52.154;5.430;2023-04-26T00:35:23;102050.41;;;4.20;83.66
70900;BME280;67902;52.154;5.430;2023-04-26T00:37:50;102038.34;;;4.16;83.99
70900;BME280;67902;52.154;5.430;2023-04-26T00:40:16;102041.56;;;4.12;84.29
70900;BME280;67902;52.154;5.430;2023-04-26T00:42:42;102042.25;;;4.05;84.35
70900;BME280;67902;52.154;5.430;2023-04-26T00:45:09;102039.09;;;3.94;84.47
70900;BME280;67902;52.154;5.430;2023-04-26T00:47:35;102040.44;;;3.82;84.27
70900;BME280;67902;52.154;5.430;2023-04-26T00:50:03;102033.63;;;3.71;84.48
70900;BME280;67902;52.154;5.430;2023-04-26T00:52:30;102033.16;;;3.68;84.94
70900;BME280;67902;52.154;5.430;2023-04-26T00:54:57;102031.47;;;3.67;84.46
70900;BME280;67902;52.154;5.430;2023-04-26T00:57:23;102043.19;;;3.58;84.57
70900;BME280;67902;52.154;5.430;2023-04-26T00:59:51;102022.75;;;3.48;84.68
70900;BME280;67902;52.154;5.430;2023-04-26T01:02:17;102039.00;;;3.39;85.10
70900;BME280;67902;52.154;5.430;2023-04-26T01:04:44;102031.81;;;3.31;84.85
70900;BME280;67902;52.154;5.430;2023-04-26T01:07:10;102033.16;;;3.19;85.45
70900;BME280;67902;52.154;5.430;2023-04-26T01:09:37;102036.31;;;3.15;85.00
70900;BME280;67902;52.154;5.430;2023-04-26T01:12:05;102041.84;;;3.05;85.61
70900;BME280;67902;52.154;5.430;2023-04-26T01:14:32;102040.81;;;3.06;85.66
70900;BME280;67902;52.154;5.430;2023-04-26T01:16:59;102045.00;;;3.01;86.03
70900;BME280;67902;52.154;5.430;2023-04-26T01:19:26;102049.53;;;3.00;85.92
70900;BME280;67902;52.154;5.430;2023-04-26T01:21:53;102048.00;;;2.98;86.58
70900;BME280;67902;52.154;5.430;2023-04-26T01:24:19;102049.88;;;2.97;86.32
70900;BME280;67902;52.154;5.430;2023-04-26T01:26:46;102053.19;;;2.99;86.40
70900;BME280;67902;52.154;5.430;2023-04-26T01:29:14;102045.69;;;2.95;85.81
70900;BME280;67902;52.154;5.430;2023-04-26T01:31:41;102058.38;;;3.01;85.94
70900;BME280;67902;52.154;5.430;2023-04-26T01:34:07;102051.19;;;3.01;86.55
70900;BME280;67902;52.154;5.430;2023-04-26T01:36:34;102052.88;;;3.02;86.47
70900;BME280;67902;52.154;5.430;2023-04-26T01:39:00;102051.38;;;3.00;87.12
70900;BME280;67902;52.154;5.430;2023-04-26T01:41:26;102057.19;;;2.95;87.26
70900;BME280;67902;52.154;5.430;2023-04-26T01:43:53;102055.88;;;2.91;86.79
70900;BME280;67902;52.154;5.430;2023-04-26T01:46:20;102055.53;;;2.86;87.11
70900;BME280;67902;52.154;5.430;2023-04-26T01:48:47;102058.19;;;2.86;87.16
70900;BME280;67902;52.154;5.430;2023-04-26T01:51:13;102051.50;;;2.82;86.95
70900;BME280;67902;52.154;5.430;2023-04-26T01:53:40;102046.66;;;2.77;87.19
70900;BME280;67902;52.154;5.430;2023-04-26T01:56:06;102043.13;;;2.77;86.97
70900;BME280;67902;52.154;5.430;2023-04-26T01:58:33;102041.44;;;2.76;86.90
70900;BME280;67902;52.154;5.430;2023-04-26T02:01:07;102049.66;;;2.74;87.03
70900;BME280;67902;52.154;5.430;2023-04-26T02:03:34;102046.44;;;2.71;87.33
70900;BME280;67902;52.154;5.430;2023-04-26T02:06:01;102042.06;;;2.62;86.48
70900;BME280;67902;52.154;5.430;2023-04-26T02:08:27;102036.38;;;2.57;86.70
70900;BME280;67902;52.154;5.430;2023-04-26T02:10:54;102050.75;;;2.56;87.34
70900;BME280;67902;52.154;5.430;2023-04-26T02:13:20;102049.75;;;2.57;87.70
70900;BME280;67902;52.154;5.430;2023-04-26T02:15:48;102047.91;;;2.57;87.38
70900;BME280;67902;52.154;5.430;2023-04-26T02:18:14;102043.91;;;2.61;87.50
70900;BME280;67902;52.154;5.430;2023-04-26T02:20:43;102049.44;;;2.60;87.53
70900;BME280;67902;52.154;5.430;2023-04-26T02:23:10;102049.44;;;2.60;87.42
70900;BME280;67902;52.154;5.430;2023-04-26T02:25:37;102047.75;;;2.59;87.67
70900;BME280;67902;52.154;5.430;2023-04-26T02:28:04;102043.91;;;2.61;87.69
70900;BME280;67902;52.154;5.430;2023-04-26T02:30:31;102043.91;;;2.61;87.39
70900;BME280;67902;52.154;5.430;2023-04-26T02:32:58;102040.03;;;2.56;87.42
70900;BME280;67902;52.154;5.430;2023-04-26T02:35:24;102047.91;;;2.49;87.51
70900;BME280;67902;52.154;5.430;2023-04-26T02:37:51;102044.34;;;2.41;86.80
70900;BME280;67902;52.154;5.430;2023-04-26T02:40:18;102052.69;;;2.38;86.99
70900;BME280;67902;52.154;5.430;2023-04-26T02:42:44;102044.31;;;2.32;87.53
70900;BME280;67902;52.154;5.430;2023-04-26T02:45:11;102043.84;;;2.37;87.84
70900;BME280;67902;52.154;5.430;2023-04-26T02:47:38;102045.34;;;2.40;87.56
70900;BME280;67902;52.154;5.430;2023-04-26T02:50:05;102042.84;;;2.38;88.17
70900;BME280;67902;52.154;5.430;2023-04-26T02:52:35;102038.97;;;2.32;88.61
70900;BME280;67902;52.154;5.430;2023-04-26T02:55:02;102046.78;;;2.26;87.92
70900;BME280;67902;52.154;5.430;2023-04-26T02:57:30;102038.56;;;2.19;88.73
70900;BME280;67902;52.154;5.430;2023-04-26T02:59:57;102040.56;;;2.17;88.76
70900;BME280;67902;52.154;5.430;2023-04-26T03:02:23;102041.53;;;2.08;88.77
70900;BME280;67902;52.154;5.430;2023-04-26T03:04:50;102036.50;;;2.05;88.64
70900;BME280;67902;52.154;5.430;2023-04-26T03:07:17;102034.13;;;2.02;88.05
70900;BME280;67902;52.154;5.430;2023-04-26T03:09:43;102030.13;;;1.98;88.20
70900;BME280;67902;52.154;5.430;2023-04-26T03:12:10;102026.63;;;1.98;88.95
70900;BME280;67902;52.154;5.430;2023-04-26T03:14:36;102029.28;;;1.98;88.53
70900;BME280;67902;52.154;5.430;2023-04-26T03:17:03;102032.81;;;1.98;88.55
70900;BME280;67902;52.154;5.430;2023-04-26T03:19:29;102028.31;;;1.99;89.03
70900;BME280;67902;52.154;5.430;2023-04-26T03:21:56;102032.50;;;2.01;89.12
70900;BME280;67902;52.154;5.430;2023-04-26T03:24:22;102026.47;;;1.99;88.65
70900;BME280;67902;52.154;5.430;2023-04-26T03:26:48;102032.13;;;1.96;88.72
70900;BME280;67902;52.154;5.430;2023-04-26T03:29:15;102024.25;;;1.95;89.15
70900;BME280;67902;52.154;5.430;2023-04-26T03:31:42;102023.41;;;1.94;89.65
70900;BME280;67902;52.154;5.430;2023-04-26T03:34:09;102022.91;;;1.91;89.39
70900;BME280;67902;52.154;5.430;2023-04-26T03:36:35;102026.25;;;1.93;89.50
70900;BME280;67902;52.154;5.430;2023-04-26T03:39:01;102028.41;;;1.89;89.59
70900;BME280;67902;52.154;5.430;2023-04-26T03:41:28;102028.25;;;1.91;89.20
70900;BME280;67902;52.154;5.430;2023-04-26T03:43:55;102023.41;;;1.94;89.62
70900;BME280;67902;52.154;5.430;2023-04-26T03:46:21;102027.78;;;1.95;89.26
70900;BME280;67902;52.154;5.430;2023-04-26T03:48:48;102023.59;;;1.93;89.01
70900;BME280;67902;52.154;5.430;2023-04-26T03:51:15;102021.75;;;1.93;89.49
70900;BME280;67902;52.154;5.430;2023-04-26T03:53:41;102027.78;;;1.95;89.56
70900;BME280;67902;52.154;5.430;2023-04-26T03:56:07;102024.03;;;1.88;89.23
70900;BME280;67902;52.154;5.430;2023-04-26T03:58:34;102026.56;;;1.90;89.31
70900;BME280;67902;52.154;5.430;2023-04-26T04:01:01;102025.72;;;1.89;89.00
70900;BME280;67902;52.154;5.430;2023-04-26T04:03:27;102026.03;;;1.86;88.59
70900;BME280;67902;52.154;5.430;2023-04-26T04:05:55;102032.72;;;1.82;89.00
70900;BME280;67902;52.154;5.430;2023-04-26T04:08:22;102035.00;;;1.77;88.47
70900;BME280;67902;52.154;5.430;2023-04-26T04:10:48;102028.97;;;1.75;88.97
70900;BME280;67902;52.154;5.430;2023-04-26T04:13:15;102029.50;;;1.79;88.86
70900;BME280;67902;52.154;5.430;2023-04-26T04:15:41;102026.34;;;1.83;88.85
70900;BME280;67902;52.154;5.430;2023-04-26T04:18:08;102026.41;;;1.91;89.52
70900;BME280;67902;52.154;5.430;2023-04-26T04:20:34;102020.91;;;1.93;88.81
70900;BME280;67902;52.154;5.430;2023-04-26T04:23:01;102023.41;;;1.94;88.89
70900;BME280;67902;52.154;5.430;2023-04-26T04:25:29;102017.44;;;2.00;89.43
70900;BME280;67902;52.154;5.430;2023-04-26T04:27:56;102021.63;;;2.03;89.36
70900;BME280;67902;52.154;5.430;2023-04-26T04:30:23;102025.13;;;2.03;89.02
70900;BME280;67902;52.154;5.430;2023-04-26T04:32:51;102029.81;;;2.01;88.85
70900;BME280;67902;52.154;5.430;2023-04-26T04:35:17;102028.78;;;2.02;89.40
70900;BME280;67902;52.154;5.430;2023-04-26T04:37:44;102027.00;;;2.11;89.27
70900;BME280;67902;52.154;5.430;2023-04-26T04:40:11;102017.50;;;2.16;89.33
70900;BME280;67902;52.154;5.430;2023-04-26T04:42:38;102030.59;;;2.27;89.24
70900;BME280;67902;52.154;5.430;2023-04-26T04:45:05;102026.81;;;2.38;89.83
70900;BME280;67902;52.154;5.430;2023-04-26T04:47:32;102027.78;;;2.37;89.45
70900;BME280;67902;52.154;5.430;2023-04-26T04:49:59;102030.16;;;2.40;90.06
70900;BME280;67902;52.154;5.430;2023-04-26T04:52:25;102024.97;;;2.39;89.73
70900;BME280;67902;52.154;5.430;2023-04-26T04:54:52;102034.31;;;2.34;89.41
70900;BME280;67902;52.154;5.430;2023-04-26T04:57:18;102035.13;;;2.27;89.27
70900;BME280;67902;52.154;5.430;2023-04-26T04:59:45;102035.28;;;2.33;89.61
70900;BME280;67902;52.154;5.430;2023-04-26T05:02:12;102035.69;;;2.47;89.71
70900;BME280;67902;52.154;5.430;2023-04-26T05:04:38;102036.25;;;2.58;89.78
70900;BME280;67902;52.154;5.430;2023-04-26T05:07:05;102035.41;;;2.66;89.71
70900;BME280;67902;52.154;5.430;2023-04-26T05:09:32;102043.78;;;2.71;89.61
70900;BME280;67902;52.154;5.430;2023-04-26T05:11:58;102039.09;;;2.73;88.82
70900;BME280;67902;52.154;5.430;2023-04-26T05:14:25;102050.63;;;2.73;88.64
70900;BME280;67902;52.154;5.430;2023-04-26T05:16:51;102050.81;;;2.72;88.82
70900;BME280;67902;52.154;5.430;2023-04-26T05:19:18;102050.19;;;2.86;88.61
70900;BME280;67902;52.154;5.430;2023-04-26T05:21:44;102051.38;;;3.00;88.04
70900;BME280;67902;52.154;5.430;2023-04-26T05:24:10;102047.34;;;3.12;87.77
70900;BME280;67902;52.154;5.430;2023-04-26T05:26:37;102059.91;;;3.19;87.39
70900;BME280;67902;52.154;5.430;2023-04-26T05:29:03;102056.72;;;3.24;87.05
70900;BME280;67902;52.154;5.430;2023-04-26T05:31:30;102057.06;;;3.29;86.94
70900;BME280;67902;52.154;5.430;2023-04-26T05:33:57;102055.56;;;3.42;86.86
70900;BME280;67902;52.154;5.430;2023-04-26T05:36:23;102052.72;;;3.60;86.51
70900;BME280;67902;52.154;5.430;2023-04-26T05:38:49;102055.53;;;3.83;86.32
70900;BME280;67902;52.154;5.430;2023-04-26T05:41:16;102055.34;;;4.00;85.30
70900;BME280;67902;52.154;5.430;2023-04-26T05:43:42;102058.47;;;4.20;85.17
70900;BME280;67902;52.154;5.430;2023-04-26T05:46:08;102054.94;;;4.58;85.29
70900;BME280;67902;52.154;5.430;2023-04-26T05:48:35;102052.50;;;5.25;84.31
70900;BME280;67902;52.154;5.430;2023-04-26T05:51:01;102049.00;;;5.62;82.71
70900;BME280;67902;52.154;5.430;2023-04-26T05:53:28;102055.97;;;6.08;81.70
70900;BME280;67902;52.154;5.430;2023-04-26T05:55:54;102053.81;;;6.62;80.14
70900;BME280;67902;52.154;5.430;2023-04-26T05:58:21;102043.00;;;7.34;77.51
70900;BME280;67902;52.154;5.430;2023-04-26T06:00:47;102046.44;;;8.04;75.63
70900;BME280;67902;52.154;5.430;2023-04-26T06:03:14;102046.94;;;8.49;73.88
70900;BME280;67902;52.154;5.430;2023-04-26T06:05:40;102050.50;;;8.56;71.95
70900;BME280;67902;52.154;5.430;2023-04-26T06:08:07;102057.97;;;8.54;70.74
70900;BME280;67902;52.154;5.430;2023-04-26T06:10:34;102051.47;;;8.89;70.35
70900;BME280;67902;52.154;5.430;2023-04-26T06:13:03;102059.84;;;9.14;68.67
70900;BME280;67902;52.154;5.430;2023-04-26T06:15:30;102048.81;;;9.15;68.55
70900;BME280;67902;52.154;5.430;2023-04-26T06:17:57;102052.38;;;9.22;68.29
70900;BME280;67902;52.154;5.430;2023-04-26T06:20:23;102055.19;;;8.88;66.22
70900;BME280;67902;52.154;5.430;2023-04-26T06:22:49;102057.97;;;8.54;68.20
70900;BME280;67902;52.154;5.430;2023-04-26T06:25:16;102059.47;;;8.29;67.89
70900;BME280;67902;52.154;5.430;2023-04-26T06:27:42;102058.78;;;8.20;68.54
70900;BME280;67902;52.154;5.430;2023-04-26T06:30:09;102060.81;;;8.11;69.78
70900;BME280;67902;52.154;5.430;2023-04-26T06:32:37;102062.41;;;7.99;69.80
70900;BME280;67902;52.154;5.430;2023-04-26T06:35:04;102063.75;;;7.89;70.66
70900;BME280;67902;52.154;5.430;2023-04-26T06:37:30;102076.38;;;7.82;69.81
70900;BME280;67902;52.154;5.430;2023-04-26T06:39:57;102068.72;;;7.85;69.77
70900;BME280;67902;52.154;5.430;2023-04-26T06:42:23;102074.69;;;8.08;69.55
70900;BME280;67902;52.154;5.430;2023-04-26T06:44:50;102077.81;;;8.33;69.50
70900;BME280;67902;52.154;5.430;2023-04-26T06:47:16;102079.22;;;8.70;67.98
70900;BME280;67902;52.154;5.430;2023-04-26T06:49:43;102080.00;;;8.57;66.95
70900;BME280;67902;52.154;5.430;2023-04-26T06:52:09;102084.88;;;8.41;68.26
70900;BME280;67902;52.154;5.430;2023-04-26T06:54:35;102080.34;;;8.48;67.78
70900;BME280;67902;52.154;5.430;2023-04-26T06:57:15;102085.44;;;8.30;66.71
70900;BME280;67902;52.154;5.430;2023-04-26T06:59:41;102088.44;;;8.13;66.98
70900;BME280;67902;52.154;5.430;2023-04-26T07:02:08;102084.44;;;8.37;68.16
70900;BME280;67902;52.154;5.430;2023-04-26T07:04:34;102093.41;;;8.85;66.46
70900;BME280;67902;52.154;5.430;2023-04-26T07:07:02;102084.28;;;8.86;65.45
70900;BME280;67902;52.154;5.430;2023-04-26T07:09:28;102079.69;;;8.80;65.10
70900;BME280;67902;52.154;5.430;2023-04-26T07:11:55;102092.13;;;8.74;64.89
70900;BME280;67902;52.154;5.430;2023-04-26T07:14:23;102084.91;;;8.88;67.17
70900;BME280;67902;52.154;5.430;2023-04-26T07:16:49;102080.84;;;9.12;64.52
70900;BME280;67902;52.154;5.430;2023-04-26T07:19:16;102084.34;;;9.12;65.42
70900;BME280;67902;52.154;5.430;2023-04-26T07:21:43;102091.56;;;8.99;62.62
70900;BME280;67902;52.154;5.430;2023-04-26T07:24:09;102083.88;;;8.96;66.34
70900;BME280;67902;52.154;5.430;2023-04-26T07:26:36;102079.19;;;9.30;65.17
70900;BME280;67902;52.154;5.430;2023-04-26T07:29:02;102081.13;;;9.76;64.09
70900;BME280;67902;52.154;5.430;2023-04-26T07:31:30;102069.88;;;10.18;64.03
70900;BME280;67902;52.154;5.430;2023-04-26T07:33:57;102067.34;;;10.23;62.21
70900;BME280;67902;52.154;5.430;2023-04-26T07:36:23;102070.72;;;10.19;61.33
70900;BME280;67902;52.154;5.430;2023-04-26T07:38:50;102073.59;;;9.91;60.76
70900;BME280;67902;52.154;5.430;2023-04-26T07:41:17;102068.22;;;9.78;60.33
70900;BME280;67902;52.154;5.430;2023-04-26T07:43:43;102078.59;;;9.74;60.43
70900;BME280;67902;52.154;5.430;2023-04-26T07:46:09;102075.28;;;9.99;61.02
70900;BME280;67902;52.154;5.430;2023-04-26T07:48:36;102086.94;;;10.19;60.11
70900;BME280;67902;52.154;5.430;2023-04-26T07:51:10;102078.97;;;10.30;60.42
70900;BME280;67902;52.154;5.430;2023-04-26T07:53:40;102076.53;;;9.96;58.92
70900;BME280;67902;52.154;5.430;2023-04-26T07:56:07;102080.28;;;9.95;59.05
70900;BME280;67902;52.154;5.430;2023-04-26T07:58:34;102081.09;;;9.89;59.61
70900;BME280;67902;52.154;5.430;2023-04-26T08:01:01;102089.84;;;10.04;59.35
70900;BME280;67902;52.154;5.430;2023-04-26T08:03:28;102091.84;;;10.55;58.98
70900;BME280;67902;52.154;5.430;2023-04-26T08:05:55;102096.19;;;11.13;56.35
70900;BME280;67902;52.154;5.430;2023-04-26T08:08:25;102092.91;;;11.67;55.83
70900;BME280;67902;52.154;5.430;2023-04-26T08:10:52;102099.81;;;11.70;56.22
70900;BME280;67902;52.154;5.430;2023-04-26T08:13:18;102095.94;;;11.52;54.51
70900;BME280;67902;52.154;5.430;2023-04-26T08:15:45;102092.44;;;11.14;54.63
70900;BME280;67902;52.154;5.430;2023-04-26T08:18:12;102093.00;;;10.78;53.90
70900;BME280;67902;52.154;5.430;2023-04-26T08:20:39;102090.53;;;10.77;54.81
70900;BME280;67902;52.154;5.430;2023-04-26T08:23:05;102091.97;;;11.17;55.88
70900;BME280;67902;52.154;5.430;2023-04-26T08:25:31;102094.06;;;11.22;54.15
70900;BME280;67902;52.154;5.430;2023-04-26T08:28:00;102094.00;;;10.90;54.28
70900;BME280;67902;52.154;5.430;2023-04-26T08:30:27;102104.00;;;10.32;54.25
70900;BME280;67902;52.154;5.430;2023-04-26T08:32:53;102094.00;;;10.00;57.06
70900;BME280;67902;52.154;5.430;2023-04-26T08:35:19;102094.00;;;10.00;59.01
70900;BME280;67902;52.154;5.430;2023-04-26T08:37:47;102102.34;;;9.92;58.55
70900;BME280;67902;52.154;5.430;2023-04-26T08:40:13;102096.50;;;9.62;57.28
70900;BME280;67902;52.154;5.430;2023-04-26T08:42:47;102088.97;;;9.31;58.95
70900;BME280;67902;52.154;5.430;2023-04-26T08:45:14;102098.06;;;9.11;58.25
70900;BME280;67902;52.154;5.430;2023-04-26T08:47:57;102097.91;;;8.71;60.39
70900;BME280;67902;52.154;5.430;2023-04-26T08:50:30;102097.47;;;8.68;63.20
70900;BME280;67902;52.154;5.430;2023-04-26T08:52:58;102102.03;;;8.61;61.88
70900;BME280;67902;52.154;5.430;2023-04-26T08:55:25;102100.13;;;8.55;62.73
70900;BME280;67902;52.154;5.430;2023-04-26T08:57:52;102105.19;;;8.30;63.48
70900;BME280;67902;52.154;5.430;2023-04-26T09:00:19;102113.69;;;8.06;65.49
70900;BME280;67902;52.154;5.430;2023-04-26T09:02:49;102109.03;;;7.93;66.65
70900;BME280;67902;52.154;5.430;2023-04-26T09:05:17;102110.19;;;7.84;67.54
70900;BME280;67902;52.154;5.430;2023-04-26T09:07:49;102105.63;;;7.85;66.77
70900;BME280;67902;52.154;5.430;2023-04-26T09:10:20;102103.09;;;7.77;68.31
70900;BME280;67902;52.154;5.430;2023-04-26T09:12:51;102110.09;;;7.71;67.46
70900;BME280;67902;52.154;5.430;2023-04-26T09:15:20;102099.44;;;7.63;66.32
70900;BME280;67902;52.154;5.430;2023-04-26T09:23:11;102095.59;;;8.00;65.89
70900;BME280;67902;52.154;5.430;2023-04-26T09:25:37;102099.84;;;8.15;64.30
70900;BME280;67902;52.154;5.430;2023-04-26T09:28:18;102097.63;;;8.26;65.17
70900;BME280;67902;52.154;5.430;2023-04-26T09:30:45;102102.81;;;8.55;64.19
70900;BME280;67902;52.154;5.430;2023-04-26T09:33:11;102110.41;;;8.79;63.79
70900;BME280;67902;52.154;5.430;2023-04-26T09:35:39;102102.13;;;8.87;63.42
70900;BME280;67902;52.154;5.430;2023-04-26T09:38:13;102100.09;;;8.89;61.39
70900;BME280;67902;52.154;5.430;2023-04-26T09:40:45;102098.22;;;8.96;62.21
70900;BME280;67902;52.154;5.430;2023-04-26T09:43:14;102096.41;;;9.16;60.49
70900;BME280;67902;52.154;5.430;2023-04-26T09:45:49;102105.63;;;9.42;61.34
70900;BME280;67902;52.154;5.430;2023-04-26T09:48:33;102095.06;;;9.79;59.35
70900;BME280;67902;52.154;5.430;2023-04-26T09:53:36;102101.28;;;10.19;59.22
70900;BME280;67902;52.154;5.430;2023-04-26T09:58:58;102096.44;;;10.47;56.78
70900;BME280;67902;52.154;5.430;2023-04-26T10:01:26;102095.28;;;10.88;56.43
70900;BME280;67902;52.154;5.430;2023-04-26T10:03:56;102092.63;;;10.75;55.12
70900;BME280;67902;52.154;5.430;2023-04-26T10:06:26;102090.59;;;10.57;53.63
70900;BME280;67902;52.154;5.430;2023-04-26T10:08:53;102091.19;;;10.66;53.83
70900;BME280;67902;52.154;5.430;2023-04-26T10:11:21;102095.94;;;10.77;55.26
70900;BME280;67902;52.154;5.430;2023-04-26T10:13:49;102087.13;;;10.88;52.71
70900;BME280;67902;52.154;5.430;2023-04-26T10:16:17;102084.69;;;10.80;52.94
70900;BME280;67902;52.154;5.430;2023-04-26T10:18:45;102086.53;;;10.79;53.64
70900;BME280;67902;52.154;5.430;2023-04-26T10:21:20;102087.34;;;10.86;52.92
70900;BME280;67902;52.154;5.430;2023-04-26T10:23:48;102089.44;;;10.84;52.92
70900;BME280;67902;52.154;5.430;2023-04-26T10:26:52;102088.59;;;10.84;53.30
70900;BME280;67902;52.154;5.430;2023-04-26T10:29:20;102089.91;;;10.75;52.24
70900;BME280;67902;52.154;5.430;2023-04-26T10:32:03;102086.44;;;10.55;53.59
70900;BME280;67902;52.154;5.430;2023-04-26T10:34:32;102089.75;;;10.57;54.43
70900;BME280;67902;52.154;5.430;2023-04-26T10:39:37;102087.53;;;10.34;54.15
70900;BME280;67902;52.154;5.430;2023-04-26T10:44:51;102084.94;;;10.59;54.01
70900;BME280;67902;52.154;5.430;2023-04-26T10:47:31;102085.59;;;10.47;53.70
70900;BME280;67902;52.154;5.430;2023-04-26T10:50:03;102084.41;;;10.30;54.49
70900;BME280;67902;52.154;5.430;2023-04-26T10:52:31;102084.78;;;10.47;54.69
70900;BME280;67902;52.154;5.430;2023-04-26T10:54:58;102087.28;;;10.48;54.06
70900;BME280;67902;52.154;5.430;2023-04-26T10:57:51;102087.88;;;10.64;53.84
70900;BME280;67902;52.154;5.430;2023-04-26T11:00:25;102087.56;;;10.85;53.68
70900;BME280;67902;52.154;5.430;2023-04-26T11:02:56;102079.63;;;10.90;54.02
70900;BME280;67902;52.154;5.430;2023-04-26T11:05:52;102081.91;;;10.93;53.10
70900;BME280;67902;52.154;5.430;2023-04-26T11:08:23;102085.47;;;10.87;52.98
70900;BME280;67902;52.154;5.430;2023-04-26T11:13:29;102076.81;;;11.10;53.01
70900;BME280;67902;52.154;5.430;2023-04-26T11:16:00;102079.09;;;11.13;51.49
70900;BME280;67902;52.154;5.430;2023-04-26T11:18:30;102078.19;;;11.25;53.41
70900;BME280;67902;52.154;5.430;2023-04-26T11:20:58;102067.41;;;11.43;53.70
70900;BME280;67902;52.154;5.430;2023-04-26T11:23:26;102067.28;;;11.88;52.67
70900;BME280;67902;52.154;5.430;2023-04-26T11:25:56;102061.75;;;12.01;52.35
70900;BME280;67902;52.154;5.430;2023-04-26T11:28:22;102060.56;;;12.15;50.18
70900;BME280;67902;52.154;5.430;2023-04-26T11:30:49;102057.94;;;12.27;51.49
70900;BME280;67902;52.154;5.430;2023-04-26T11:33:19;102045.34;;;12.68;49.48
70900;BME280;67902;52.154;5.430;2023-04-26T11:35:53;102045.59;;;12.97;48.99
70900;BME280;67902;52.154;5.430;2023-04-26T11:38:24;102046.19;;;12.80;46.28
70900;BME280;67902;52.154;5.430;2023-04-26T11:41:01;102048.19;;;12.73;48.02
70900;BME280;67902;52.154;5.430;2023-04-26T11:45:58;102048.75;;;13.65;48.96
70900;BME280;67902;52.154;5.430;2023-04-26T11:48:28;102044.84;;;13.95;48.64
70900;BME280;67902;52.154;5.430;2023-04-26T11:50:56;102048.63;;;14.18;46.69
70900;BME280;67902;52.154;5.430;2023-04-26T11:53:23;102040.84;;;14.33;45.91
70900;BME280;67902;52.154;5.430;2023-04-26T11:55:50;102044.03;;;14.41;44.66
70900;BME280;67902;52.154;5.430;2023-04-26T11:58:17;102048.16;;;14.44;45.15
70900;BME280;67902;52.154;5.430;2023-04-26T12:00:59;102042.03;;;14.14;44.45
70900;BME280;67902;52.154;5.430;2023-04-26T12:03:31;102046.47;;;13.39;44.88
70900;BME280;67902;52.154;5.430;2023-04-26T12:06:00;102053.31;;;12.82;46.53
70900;BME280;67902;52.154;5.430;2023-04-26T12:08:27;102051.81;;;12.31;48.44
70900;BME280;67902;52.154;5.430;2023-04-26T12:10:58;102054.66;;;12.00;48.49
70900;BME280;67902;52.154;5.430;2023-04-26T12:13:25;102064.03;;;11.79;48.66
70900;BME280;67902;52.154;5.430;2023-04-26T12:15:51;102065.69;;;11.49;49.51
70900;BME280;67902;52.154;5.430;2023-04-26T12:18:18;102062.53;;;11.27;51.20
70900;BME280;67902;52.154;5.430;2023-04-26T12:20:45;102063.13;;;11.29;51.34
70900;BME280;67902;52.154;5.430;2023-04-26T12:23:15;102062.94;;;11.31;51.14
70900;BME280;67902;52.154;5.430;2023-04-26T12:25:55;102062.34;;;11.22;51.77
70900;BME280;67902;52.154;5.430;2023-04-26T12:28:22;102071.97;;;11.18;50.60
70900;BME280;67902;52.154;5.430;2023-04-26T12:30:50;102066.66;;;10.98;50.23
70900;BME280;67902;52.154;5.430;2023-04-26T12:33:17;102071.53;;;10.83;51.49
70900;BME280;67902;52.154;5.430;2023-04-26T12:35:48;102065.47;;;10.81;52.47
70900;BME280;67902;52.154;5.430;2023-04-26T12:38:15;102074.25;;;10.77;51.63
70900;BME280;67902;52.154;5.430;2023-04-26T12:40:42;102077.16;;;10.75;53.47
70900;BME280;67902;52.154;5.430;2023-04-26T12:43:11;102075.06;;;10.84;53.54
70900;BME280;67902;52.154;5.430;2023-04-26T12:45:37;102072.34;;;10.84;52.54
70900;BME280;67902;52.154;5.430;2023-04-26T12:48:04;102075.47;;;10.81;51.98
70900;BME280;67902;52.154;5.430;2023-04-26T12:50:31;102073.84;;;10.80;51.59
70900;BME280;67902;52.154;5.430;2023-04-26T12:52:57;102069.03;;;10.82;52.57
70900;BME280;67902;52.154;5.430;2023-04-26T12:55:24;102070.44;;;10.91;53.68
70900;BME280;67902;52.154;5.430;2023-04-26T12:57:50;102072.38;;;11.15;54.01
70900;BME280;67902;52.154;5.430;2023-04-26T13:00:17;102064.53;;;11.07;50.66
70900;BME280;67902;52.154;5.430;2023-04-26T13:02:43;102071.97;;;11.18;50.35
70900;BME280;67902;52.154;5.430;2023-04-26T13:05:11;102064.19;;;11.28;51.62
70900;BME280;67902;52.154;5.430;2023-04-26T13:07:38;102069.69;;;11.46;51.32
70900;BME280;67902;52.154;5.430;2023-04-26T13:10:06;102077.63;;;11.48;51.85
70900;BME280;67902;52.154;5.430;2023-04-26T13:12:34;102082.53;;;11.57;52.10
70900;BME280;67902;52.154;5.430;2023-04-26T13:15:01;102074.69;;;11.49;51.41
70900;BME280;67902;52.154;5.430;2023-04-26T13:17:27;102072.19;;;11.48;52.83
70900;BME280;67902;52.154;5.430;2023-04-26T13:19:54;102073.91;;;11.42;51.90
70900;BME280;67902;52.154;5.430;2023-04-26T13:22:20;102074.25;;;11.21;50.73